createdAt,value
2022-10-01T00:02:57.887Z,79.61
2022-10-01T00:09:10.149Z,79.61
2022-10-01T00:15:52.941Z,79.67
2022-10-01T00:21:22.750Z,79.68
2022-10-01T00:27:28.833Z,79.65
2022-10-01T00:33:11.646Z,79.60
2022-10-01T00:38:35.030Z,79.59
2022-10-01T00:44:38.025Z,79.57
2022-10-01T00:50:55.297Z,79.64
2022-10-01T00:56:26.447Z,79.69
2022-10-01T01:02:03.120Z,79.69
2022-10-01T01:08:26.618Z,79.63
2022-10-01T01:14:36.018Z,79.63
2022-10-01T01:20:49.536Z,79.74
2022-10-01T01:27:25.961Z,79.64
2022-10-01T01:33:19.358Z,79.67
2022-10-01T01:38:59.219Z,79.78
2022-10-01T01:44:47.730Z,79.70
2022-10-01T01:51:15.210Z,79.92
2022-10-01T01:57:01.376Z,79.90
2022-10-01T02:02:54.681Z,79.83
2022-10-01T02:08:40.502Z,79.75
2022-10-01T02:14:35.275Z,79.83
2022-10-01T02:20:08.546Z,80.02
2022-10-01T02:26:14.391Z,80.02
2022-10-01T02:32:20.779Z,80.07
2022-10-01T02:37:51.644Z,80.04
2022-10-01T02:43:43.189Z,80.11
2022-10-01T02:50:11.854Z,80.14
2022-10-01T02:56:06.908Z,80.11
2022-10-01T03:01:32.894Z,80.17
2022-10-01T03:07:41.100Z,80.39
2022-10-01T03:13:19.960Z,80.39
2022-10-01T03:18:53.045Z,80.43
2022-10-01T03:24:43.068Z,80.49
2022-10-01T03:30:27.023Z,80.54
2022-10-01T03:35:51.967Z,80.65
2022-10-01T03:41:14.280Z,80.66
2022-10-01T03:46:44.051Z,80.64
2022-10-01T03:52:20.511Z,80.61
2022-10-01T03:58:24.385Z,80.76
2022-10-01T04:06:48.246Z,81.14
2022-10-01T04:12:12.981Z,81.02
2022-10-01T04:17:37.192Z,80.94
2022-10-01T04:23:01.560Z,80.92
2022-10-01T04:28:32.600Z,80.69
2022-10-01T04:34:05.549Z,80.41
2022-10-01T04:39:30.810Z,80.42
2022-10-01T04:45:02.818Z,80.60
2022-10-01T04:50:58.495Z,80.41
2022-10-01T04:57:00.295Z,80.53
2022-10-01T05:02:47.627Z,80.44
2022-10-01T05:08:10.643Z,80.31
2022-10-01T05:13:33.049Z,80.16
2022-10-01T05:18:56.798Z,80.29
2022-10-01T05:24:18.941Z,80.50
2022-10-01T05:29:41.774Z,80.91
2022-10-01T05:35:07.250Z,80.64
2022-10-01T05:40:32.192Z,80.44
2022-10-01T05:46:05.836Z,80.24
2022-10-01T05:51:49.932Z,80.32
2022-10-01T05:57:42.764Z,81.13
2022-10-01T06:03:47.510Z,81.76
2022-10-01T06:09:10.883Z,82.28
2022-10-01T06:14:39.639Z,82.64
2022-10-01T06:20:16.556Z,82.75
2022-10-01T06:25:50.489Z,82.60
2022-10-01T06:31:25.696Z,82.47
2022-10-01T06:37:08.373Z,82.08
2022-10-01T06:43:08.465Z,81.53
2022-10-01T06:48:57.064Z,81.13
2022-10-01T06:54:36.143Z,81.00
2022-10-01T07:00:15.334Z,81.11
2022-10-01T07:06:35.365Z,81.29
2022-10-01T07:12:20.476Z,81.44
2022-10-01T07:17:49.029Z,81.46
2022-10-01T07:23:24.607Z,81.29
2022-10-01T07:28:49.938Z,81.24
2022-10-01T07:34:17.522Z,81.18
2022-10-01T07:39:40.066Z,81.14
2022-10-01T07:45:14.653Z,81.24
2022-10-01T07:50:47.375Z,81.35
2022-10-01T07:56:17.479Z,80.99
2022-10-01T08:01:39.986Z,80.78
2022-10-01T08:07:18.957Z,80.71
2022-10-01T08:12:44.696Z,80.68
2022-10-01T08:18:23.684Z,80.42
2022-10-01T08:23:45.652Z,80.13
2022-10-01T08:29:07.684Z,79.82
2022-10-01T08:34:29.690Z,79.67
2022-10-01T08:39:54.710Z,79.21
2022-10-01T08:45:28.822Z,79.29
2022-10-01T08:51:10.952Z,79.23
2022-10-01T08:56:45.305Z,79.17
2022-10-01T09:02:25.909Z,78.93
2022-10-01T09:08:56.662Z,78.83
2022-10-01T09:15:10.935Z,78.85
2022-10-01T09:20:42.102Z,78.88
2022-10-01T09:26:29.874Z,78.99
2022-10-01T09:32:20.862Z,78.85
2022-10-01T09:38:03.568Z,78.61
2022-10-01T09:43:43.414Z,78.41
2022-10-01T09:49:49.067Z,78.21
2022-10-01T09:56:04.897Z,78.01
2022-10-01T10:02:06.288Z,78.15
2022-10-01T10:07:44.070Z,78.00
2022-10-01T10:13:31.721Z,77.87
2022-10-01T10:19:15.532Z,77.99
2022-10-01T10:24:47.183Z,78.14
2022-10-01T10:30:39.431Z,78.21
2022-10-01T10:36:09.138Z,77.92
2022-10-01T10:41:32.033Z,77.58
2022-10-01T10:47:03.478Z,77.43
2022-10-01T10:52:48.386Z,76.65
2022-10-01T10:58:40.399Z,76.19
2022-10-01T11:04:30.755Z,75.67
2022-10-01T11:10:30.030Z,75.21
2022-10-01T11:16:51.612Z,75.33
2022-10-01T11:23:20.955Z,74.42
2022-10-01T11:29:33.206Z,74.29
2022-10-01T11:35:18.789Z,73.72
2022-10-01T11:41:23.572Z,73.78
2022-10-01T11:47:34.927Z,74.19
2022-10-01T11:53:55.749Z,74.31
2022-10-01T11:59:34.697Z,73.94
2022-10-01T12:05:35.036Z,73.50
2022-10-01T12:11:40.349Z,72.97
2022-10-01T12:17:32.522Z,72.73
2022-10-01T12:23:23.146Z,72.86
2022-10-01T12:30:01.306Z,73.00
2022-10-01T12:36:41.127Z,73.13
2022-10-01T12:43:53.441Z,72.86
2022-10-01T12:49:49.491Z,72.96
2022-10-01T12:56:10.760Z,73.19
2022-10-01T13:02:43.672Z,72.87
2022-10-01T13:09:02.536Z,72.92
2022-10-01T13:14:46.249Z,72.79
2022-10-01T13:21:17.440Z,72.63
2022-10-01T13:26:56.102Z,72.82
2022-10-01T13:32:33.402Z,73.32
2022-10-01T13:38:01.981Z,73.60
2022-10-01T13:43:39.100Z,73.70
2022-10-01T13:49:22.782Z,73.93
2022-10-01T13:55:28.648Z,74.18
2022-10-01T14:00:57.442Z,74.18
2022-10-01T14:07:10.595Z,73.68
2022-10-01T14:13:04.807Z,72.99
2022-10-01T14:18:37.094Z,72.63
2022-10-01T14:24:29.471Z,72.39
2022-10-01T14:30:38.254Z,72.43
2022-10-01T14:36:34.716Z,72.49
2022-10-01T14:42:22.296Z,72.61
2022-10-01T14:47:59.870Z,72.57
2022-10-01T14:53:30.072Z,72.50
2022-10-01T14:59:08.944Z,72.53
2022-10-01T15:05:40.983Z,72.46
2022-10-01T15:11:35.074Z,72.58
2022-10-01T15:17:21.522Z,72.68
2022-10-01T15:23:03.847Z,72.55
2022-10-01T15:28:55.690Z,72.54
2022-10-01T15:34:33.225Z,72.52
2022-10-01T15:40:00.943Z,72.40
2022-10-01T15:45:31.529Z,72.31
2022-10-01T15:51:17.162Z,72.32
2022-10-01T15:56:59.412Z,72.22
2022-10-01T16:02:52.099Z,72.24
2022-10-01T16:09:13.745Z,72.29
2022-10-01T16:15:04.400Z,72.49
2022-10-01T16:21:26.898Z,72.83
2022-10-01T16:27:05.425Z,73.00
2022-10-01T16:33:30.643Z,73.20
2022-10-01T16:39:25.440Z,73.24
2022-10-01T16:45:29.938Z,73.36
2022-10-01T16:51:04.430Z,73.58
2022-10-01T16:57:07.031Z,73.86
2022-10-01T17:02:37.629Z,74.13
2022-10-01T17:08:27.092Z,74.33
2022-10-01T17:14:07.605Z,74.56
2022-10-01T17:20:12.877Z,74.71
2022-10-01T17:25:47.656Z,74.83
2022-10-01T17:31:18.039Z,74.90
2022-10-01T17:37:06.491Z,75.07
2022-10-01T17:42:50.956Z,75.04
2022-10-01T17:48:50.284Z,74.85
2022-10-01T17:54:52.606Z,75.12
2022-10-01T18:00:23.750Z,75.20
2022-10-01T18:06:12.921Z,73.80
2022-10-01T18:11:40.998Z,71.93
2022-10-01T18:17:04.434Z,72.04
2022-10-01T18:22:27.532Z,72.14
2022-10-01T18:27:52.523Z,72.22
2022-10-01T18:33:43.306Z,72.30
2022-10-01T18:39:40.853Z,72.57
2022-10-01T18:45:13.381Z,73.19
2022-10-01T18:51:07.763Z,73.35
2022-10-01T18:56:39.216Z,73.68
2022-10-01T19:02:33.768Z,73.94
2022-10-01T19:08:54.946Z,74.26
2022-10-01T19:15:03.674Z,74.60
2022-10-01T19:21:37.740Z,75.00
2022-10-01T19:28:28.161Z,75.47
2022-10-01T19:34:17.601Z,75.77
2022-10-01T19:40:07.239Z,76.04
2022-10-01T19:46:25.625Z,76.03
2022-10-01T19:52:19.819Z,76.13
2022-10-01T19:58:22.070Z,75.83
2022-10-01T20:04:26.809Z,75.83
2022-10-01T20:10:37.353Z,75.82
2022-10-01T20:16:27.411Z,75.81
2022-10-01T20:22:35.750Z,75.83
2022-10-01T20:28:53.410Z,75.82
2022-10-01T20:34:44.156Z,75.89
2022-10-01T20:41:00.823Z,75.88
2022-10-01T20:47:12.138Z,75.92
2022-10-01T20:53:58.315Z,76.03
2022-10-01T20:59:51.553Z,76.11
2022-10-01T21:06:41.407Z,76.11
2022-10-01T21:13:02.834Z,76.21
2022-10-01T21:19:26.936Z,76.36
2022-10-01T21:25:57.966Z,76.41
2022-10-01T21:32:05.154Z,76.51
2022-10-01T21:38:49.863Z,76.60
2022-10-01T21:45:02.741Z,76.65
2022-10-01T21:51:28.864Z,76.88
2022-10-01T21:58:02.465Z,76.81
2022-10-01T22:04:32.930Z,76.82
2022-10-01T22:11:27.497Z,77.04
2022-10-01T22:17:49.643Z,77.24
2022-10-01T22:23:50.312Z,77.25
2022-10-01T22:29:44.657Z,77.36
2022-10-01T22:35:24.797Z,77.36
2022-10-01T22:41:19.152Z,77.38
2022-10-01T22:48:00.244Z,77.47
2022-10-01T22:54:00.152Z,77.54
2022-10-01T23:00:04.398Z,77.69
2022-10-01T23:06:11.826Z,77.61
2022-10-01T23:12:32.525Z,77.67
2022-10-01T23:19:18.661Z,77.66
2022-10-01T23:26:13.316Z,77.77
2022-10-01T23:33:33.091Z,77.74
2022-10-01T23:40:14.528Z,77.69
2022-10-01T23:46:41.255Z,77.70
2022-10-01T23:53:11.076Z,77.68
2022-10-01T23:59:16.939Z,77.71
